createdAt,value
2022-10-07T00:01:52.852Z,1.45
2022-10-07T00:06:55.941Z,2.40
2022-10-07T00:12:00.548Z,2.58
2022-10-07T00:17:03.668Z,1.27
2022-10-07T00:22:06.752Z,3.15
2022-10-07T00:27:11.190Z,1.70
2022-10-07T00:32:14.246Z,2.03
2022-10-07T00:37:17.323Z,2.13
2022-10-07T00:42:21.760Z,2.70
2022-10-07T00:47:27.812Z,2.47
2022-10-07T00:52:34.563Z,3.45
2022-10-07T00:57:40.429Z,2.35
2022-10-07T01:02:44.425Z,2.08
2022-10-07T01:07:49.270Z,2.10
2022-10-07T01:13:03.994Z,2.05
2022-10-07T01:18:13.644Z,3.60
2022-10-07T01:23:53.059Z,2.03
2022-10-07T01:29:02.040Z,2.22
2022-10-07T01:34:06.820Z,1.17
2022-10-07T01:39:13.426Z,2.00
2022-10-07T01:44:18.078Z,1.63
2022-10-07T01:49:21.149Z,2.25
2022-10-07T01:54:36.068Z,2.03
2022-10-07T02:00:04.846Z,1.70
2022-10-07T02:05:14.719Z,2.22
2022-10-07T02:10:25.490Z,2.63
2022-10-07T02:15:37.603Z,1.50
2022-10-07T02:20:42.947Z,3.50
2022-10-07T02:25:48.757Z,2.42
2022-10-07T02:30:57.539Z,1.77
2022-10-07T02:36:03.548Z,2.53
2022-10-07T02:41:14.201Z,1.83
2022-10-07T02:46:22.589Z,2.88
2022-10-07T02:51:29.295Z,3.13
2022-10-07T02:56:34.667Z,2.10
2022-10-07T03:01:42.988Z,2.50
2022-10-07T03:06:46.404Z,2.13
2022-10-07T03:11:49.471Z,3.38
2022-10-07T03:16:54.203Z,2.65
2022-10-07T03:21:57.257Z,3.28
2022-10-07T03:27:00.304Z,2.55
2022-10-07T03:32:04.839Z,2.22
2022-10-07T03:37:08.139Z,2.97
2022-10-07T03:42:11.188Z,2.63
2022-10-07T03:47:15.837Z,2.90
2022-10-07T03:52:18.942Z,2.70
2022-10-07T03:57:39.524Z,3.63
2022-10-07T04:02:44.003Z,2.75
2022-10-07T04:07:48.312Z,2.72
2022-10-07T04:12:52.337Z,2.35
2022-10-07T04:17:58.780Z,2.10
2022-10-07T04:23:01.803Z,3.38
2022-10-07T04:28:07.299Z,2.58
2022-10-07T04:33:12.323Z,3.97
2022-10-07T04:38:15.935Z,4.90
2022-10-07T04:43:20.880Z,3.45
2022-10-07T04:48:27.192Z,5.05
2022-10-07T04:53:31.873Z,3.08
2022-10-07T04:58:34.979Z,2.65
2022-10-07T05:03:41.096Z,3.47
2022-10-07T05:08:44.453Z,3.47
2022-10-07T05:13:48.883Z,3.20
2022-10-07T05:18:53.269Z,3.60
2022-10-07T05:23:56.280Z,3.97
2022-10-07T05:28:59.340Z,4.15
2022-10-07T05:34:03.895Z,2.63
2022-10-07T05:39:07.061Z,2.90
2022-10-07T05:44:10.124Z,4.30
2022-10-07T05:49:14.739Z,2.63
2022-10-07T05:54:18.303Z,7.68
2022-10-07T05:59:21.590Z,5.50
2022-10-07T06:04:26.820Z,4.57
2022-10-07T06:09:47.312Z,4.80
2022-10-07T06:14:50.824Z,7.18
2022-10-07T06:19:55.214Z,7.25
2022-10-07T06:25:01.025Z,7.30
2022-10-07T06:30:04.337Z,5.85
2022-10-07T06:35:09.704Z,6.63
2022-10-07T06:40:12.775Z,10.40
2022-10-07T06:45:15.949Z,8.18
2022-10-07T06:50:20.862Z,9.50
2022-10-07T06:55:24.294Z,7.03
2022-10-07T07:00:27.369Z,6.57
2022-10-07T07:05:40.091Z,5.63
2022-10-07T07:10:46.745Z,6.78
2022-10-07T07:15:56.488Z,8.32
2022-10-07T07:21:04.850Z,5.20
2022-10-07T07:26:08.043Z,6.65
2022-10-07T07:31:12.827Z,5.63
2022-10-07T07:36:17.487Z,5.75
2022-10-07T07:41:22.282Z,5.55
2022-10-07T07:46:27.508Z,5.63
2022-10-07T07:51:32.509Z,7.30
2022-10-07T07:56:35.694Z,7.75
2022-10-07T08:01:39.076Z,5.15
2022-10-07T08:06:44.436Z,5.88
2022-10-07T08:11:47.455Z,5.28
2022-10-07T08:16:51.517Z,4.95
2022-10-07T08:21:55.992Z,6.10
2022-10-07T08:26:59.050Z,4.97
2022-10-07T08:32:02.157Z,6.63
2022-10-07T08:37:06.572Z,4.25
2022-10-07T08:42:15.964Z,4.85
2022-10-07T08:47:34.680Z,5.72
2022-10-07T08:52:49.497Z,4.45
2022-10-07T08:58:14.726Z,5.18
2022-10-07T09:03:35.827Z,5.05
2022-10-07T09:08:44.615Z,5.10
2022-10-07T09:13:51.803Z,4.82
2022-10-07T09:18:56.960Z,3.63
2022-10-07T09:24:23.218Z,4.18
2022-10-07T09:29:28.260Z,4.68
2022-10-07T09:34:32.452Z,3.58
2022-10-07T09:39:36.848Z,4.28
2022-10-07T09:44:40.920Z,3.78
2022-10-07T09:49:46.598Z,5.18
2022-10-07T09:54:52.923Z,6.65
2022-10-07T10:00:24.441Z,3.40
2022-10-07T10:05:30.743Z,4.00
2022-10-07T10:10:36.993Z,5.07
2022-10-07T10:15:42.938Z,2.60
2022-10-07T10:20:46.475Z,3.83
2022-10-07T10:26:15.943Z,3.05
2022-10-07T10:31:29.324Z,3.50
2022-10-07T10:36:35.908Z,3.45
2022-10-07T10:41:48.546Z,3.70
2022-10-07T10:47:00.005Z,3.03
2022-10-07T10:52:25.917Z,3.35
2022-10-07T10:57:42.075Z,4.47
2022-10-07T11:03:01.819Z,3.13
2022-10-07T11:08:13.137Z,3.15
2022-10-07T11:13:25.352Z,3.00
2022-10-07T11:18:34.104Z,2.95
2022-10-07T11:23:45.596Z,3.20
2022-10-07T11:28:52.026Z,2.63
2022-10-07T11:34:08.060Z,4.40
2022-10-07T11:39:11.439Z,2.78
2022-10-07T11:44:22.879Z,3.28
2022-10-07T11:49:29.958Z,2.92
2022-10-07T11:54:41.802Z,3.88
2022-10-07T11:59:49.558Z,3.83
2022-10-07T12:04:52.655Z,3.22
2022-10-07T12:10:08.774Z,3.03
2022-10-07T12:15:27.031Z,3.13
2022-10-07T12:20:47.711Z,3.42
2022-10-07T12:25:52.375Z,4.20
2022-10-07T12:31:00.167Z,2.63
2022-10-07T12:36:27.688Z,3.60
2022-10-07T12:41:33.629Z,2.78
2022-10-07T12:46:47.812Z,3.30
2022-10-07T12:51:54.069Z,3.58
2022-10-07T12:56:57.208Z,3.55
2022-10-07T13:02:57.146Z,4.00
2022-10-07T13:08:34.530Z,2.95
2022-10-07T13:13:45.137Z,4.07
2022-10-07T13:18:59.510Z,2.72
2022-10-07T13:24:02.644Z,3.70
2022-10-07T13:29:09.202Z,2.30
2022-10-07T13:34:19.058Z,3.17
2022-10-07T13:39:23.871Z,2.35
2022-10-07T13:44:30.297Z,2.30
2022-10-07T13:49:39.644Z,2.45
2022-10-07T13:54:50.507Z,2.30
2022-10-07T13:59:53.851Z,2.22
2022-10-07T14:05:04.119Z,3.58
2022-10-07T14:10:09.988Z,2.30
2022-10-07T14:15:17.053Z,3.10
2022-10-07T14:20:26.694Z,2.60
2022-10-07T14:25:31.427Z,2.65
2022-10-07T14:30:56.555Z,2.50
2022-10-07T14:36:12.618Z,2.70
2022-10-07T14:41:17.572Z,3.45
2022-10-07T14:46:22.587Z,2.53
2022-10-07T14:51:28.907Z,2.92
2022-10-07T14:56:33.578Z,2.75
2022-10-07T15:01:36.599Z,2.40
2022-10-07T15:06:40.985Z,2.50
2022-10-07T15:11:44.753Z,2.53
2022-10-07T15:16:47.873Z,2.83
2022-10-07T15:21:52.376Z,4.32
2022-10-07T15:26:55.402Z,2.78
2022-10-07T15:31:58.420Z,2.33
2022-10-07T15:37:02.944Z,3.15
2022-10-07T15:42:08.958Z,2.95
2022-10-07T15:47:13.431Z,2.42
2022-10-07T15:52:17.931Z,2.67
2022-10-07T15:57:22.434Z,3.03
2022-10-07T16:02:25.463Z,2.70
2022-10-07T16:07:30.275Z,2.67
2022-10-07T16:12:33.296Z,2.42
2022-10-07T16:17:36.330Z,2.67
2022-10-07T16:22:40.772Z,3.03
2022-10-07T16:28:00.697Z,2.60
2022-10-07T16:33:03.784Z,2.33
2022-10-07T16:38:08.233Z,2.33
2022-10-07T16:43:11.282Z,3.03
2022-10-07T16:48:17.364Z,2.80
2022-10-07T16:53:21.811Z,8.57
2022-10-07T16:58:24.844Z,5.97
2022-10-07T17:03:27.921Z,5.20
2022-10-07T17:08:37.588Z,4.45
2022-10-07T17:13:43.553Z,5.55
2022-10-07T17:18:46.875Z,5.20
2022-10-07T17:23:51.484Z,4.78
2022-10-07T17:28:59.495Z,4.63
2022-10-07T17:34:03.391Z,5.50
2022-10-07T17:39:08.102Z,3.97
2022-10-07T17:44:12.706Z,6.07
2022-10-07T17:49:15.945Z,8.55
2022-10-07T17:54:20.403Z,7.35
2022-10-07T17:59:23.457Z,5.28
2022-10-07T18:04:26.702Z,6.72
2022-10-07T18:09:31.199Z,7.32
2022-10-07T18:14:54.038Z,5.05
2022-10-07T18:19:58.895Z,3.35
2022-10-07T18:25:03.792Z,7.00
2022-10-07T18:30:08.690Z,7.50
2022-10-07T18:35:11.945Z,4.63
2022-10-07T18:40:16.476Z,5.32
2022-10-07T18:45:22.159Z,7.43
2022-10-07T18:50:29.054Z,5.20
2022-10-07T18:55:40.061Z,3.95
2022-10-07T19:00:43.915Z,4.90
2022-10-07T19:05:47.059Z,10.95
2022-10-07T19:10:51.824Z,12.57
2022-10-07T19:15:54.964Z,18.15
2022-10-07T19:20:58.592Z,18.95
2022-10-07T19:26:03.091Z,20.08
2022-10-07T19:31:14.658Z,16.35
2022-10-07T19:36:20.069Z,18.73
2022-10-07T19:41:27.315Z,17.73
2022-10-07T19:46:32.479Z,14.60
2022-10-07T19:51:37.146Z,13.63
2022-10-07T19:56:42.011Z,10.80
2022-10-07T20:01:47.454Z,13.02
2022-10-07T20:06:50.792Z,10.23
2022-10-07T20:11:55.932Z,12.82
2022-10-07T20:16:59.073Z,9.18
2022-10-07T20:22:03.587Z,11.32
2022-10-07T20:27:08.071Z,9.35
2022-10-07T20:32:11.619Z,10.10
2022-10-07T20:37:14.765Z,10.68
2022-10-07T20:42:27.317Z,8.73
2022-10-07T20:47:32.303Z,7.88
2022-10-07T20:52:36.843Z,8.88
2022-10-07T20:57:41.830Z,7.95
2022-10-07T21:02:45.612Z,13.60
2022-10-07T21:07:53.795Z,8.10
2022-10-07T21:12:59.304Z,7.95
2022-10-07T21:18:02.344Z,8.23
2022-10-07T21:23:05.429Z,5.95
2022-10-07T21:28:10.093Z,5.50
2022-10-07T21:33:13.668Z,6.43
2022-10-07T21:38:16.743Z,5.70
2022-10-07T21:43:21.405Z,7.43
2022-10-07T21:48:24.463Z,5.35
2022-10-07T21:53:27.863Z,6.10
2022-10-07T21:58:32.892Z,5.32
2022-10-07T22:03:36.001Z,5.93
2022-10-07T22:08:40.047Z,5.03
2022-10-07T22:13:46.943Z,6.05
2022-10-07T22:18:51.572Z,5.75
2022-10-07T22:23:56.631Z,4.45
2022-10-07T22:29:01.336Z,5.15
2022-10-07T22:34:04.483Z,4.82
2022-10-07T22:39:07.681Z,4.68
2022-10-07T22:44:12.088Z,4.25
2022-10-07T22:49:15.260Z,4.15
2022-10-07T22:54:18.332Z,4.45
2022-10-07T22:59:22.987Z,5.70
2022-10-07T23:04:26.385Z,4.90
2022-10-07T23:09:29.471Z,5.13
2022-10-07T23:14:33.953Z,6.18
2022-10-07T23:19:37.441Z,5.18
2022-10-07T23:24:40.525Z,5.03
2022-10-07T23:29:44.993Z,4.93
2022-10-07T23:34:48.082Z,4.60
2022-10-07T23:39:51.428Z,4.45
2022-10-07T23:44:55.908Z,5.05
2022-10-07T23:49:58.985Z,4.55
2022-10-07T23:55:02.101Z,4.03
